x

Georges Bank 170 Nm East Of Hyannis, Ma (44011) Wave Buoy

6:50am - Tue 7th Jul 2015 All times are EDT. -4 hours from GMT.

  • Sig Wave height 2.3ft
  • Swell Direction
  • Peak Period 9s
  • Average Period 6s
  • Wind
    2mph
  • Sea Temp 59°f
  • Air Temp 61°f
  • Sea Pressure 1022.4mb
  • Georges Bank 170 Nm East Of Hyannis, Ma
  • Georges Bank 170 Nm East Of Hyannis, Ma

More Historic Weather Station data

Upgrade to MSW Pro to gain access to the past 30 days of data for over 8000 Wavebouys and Weather Stations around the globe.

Join Pro

Comparision Forecast

View Surf forecast
   
Tue 07/07 6:50am 2.5ft 9s 6s 2
mph
1022.4mb 59f 61f
5:50am 2.5ft 7s 6s 4
mph
1022mb 59f 61f
4:50am 2.5ft 8s 6s 4
mph
1021.6mb 59f 61f
3:50am 2.5ft 9s 6s 4 7 mph 1021.1mb 59f 60f
2:50am 2.5ft 9s 6s 4 7 mph 1021.1mb 59f 60f
1:50am 2.5ft 8s 6s 7
mph
1021.1mb 59f 60f
12:50am 2.5ft 8s 6s 7
mph
1021.3mb 59f 59f
Mon 07/06 11:50pm 2.5ft 6s 6s 4 7 mph 1021.2mb 60f 60f
10:50pm 3ft 7s 6s 7
mph
1021.2mb 60f 60f
9:50pm 3ft 6s 6s 2
mph
1021.6mb 61f 60f
8:50pm 3.5ft 8s 7s 4
mph
1021.6mb 61f 60f
7:50pm 3ft 8s 7s 2
mph
1021.5mb 61f 61f
6:50pm 3ft 8s 7s 4
mph
1021.6mb 61f 62f
5:50pm 3.5ft 8s 7s 7
mph
1021.7mb 62f 63f
4:50pm 3ft 7s 6s 9
mph
1021.6mb 61f 62f
3:50pm 3ft 7s 6s 9
mph
1021.6mb 60f 62f
2:50pm 3ft 7s 6s 9
mph
1021.4mb 60f 62f
1:50pm 2.5ft 7s 6s 9
mph
1021.7mb 60f 62f
12:50pm 3ft 8s 6s 9 11 mph 1021.7mb 59f 62f
11:50am 3.5ft 8s 6s 7 9 mph 1022mb 59f 61f
10:50am 3.5ft 8s 6s 9
mph
1021.9mb 59f 61f
9:50am 3.5ft 9s 6s 7 9 mph 1021.4mb 58f 60f
8:50am 4ft 8s 6s 7 9 mph 1021.2mb 57f 60f
7:50am 5ft 9s 7s 7
mph
1020.9mb 58f 60f
6:50am 5ft 9s 7s 9 11 mph 1021.1mb 58f 60f
5:50am 5ft 9s 7s 9 11 mph 1021mb 58f 60f
4:50am 5ft 9s 7s 9 11 mph 1020.5mb 58f 60f
3:50am 5ft 9s 7s 11 13 mph 1020.2mb 58f 61f
2:50am 4.5ft 8s 7s 11
mph
1020.2mb 58f 61f
1:50am 5ft 9s 7s 11 13 mph 1020mb 58f 61f
12:50am 4.5ft 9s 7s 11 13 mph 1020mb 58f 60f
Sun 07/05 11:50pm 5ft 9s 7s 7 9 mph 1020.3mb 58f 60f
10:50pm 4.5ft 8s 7s 9
mph
1020.2mb 59f 60f
9:50pm 5ft 9s 7s 11
mph
1019.8mb 59f 61f
8:50pm 5ft 9s 7s 11 13 mph 1019.6mb 60f 62f
7:50pm 6ft 8s 7s 9 11 mph 1019.4mb 60f 62f
6:50pm 6ft 9s 8s 9 11 mph 1019.3mb 61f 62f
5:50pm 7.5ft 9s 8s 11 13 mph 1018.8mb 61f 63f
4:50pm 8ft 9s 8s 9 11 mph 1019.2mb 60f 62f
3:50pm 6.5ft 10s 8s 11 13 mph 1019.2mb 60f 62f
2:50pm 7.5ft 9s 8s 9
mph
1019.1mb 59f 61f
1:50pm 6ft 9s 7s 9
mph
1018.8mb 59f 60f
12:50pm 6ft 10s 8s 7
mph
1018.5mb 59f 60f
11:50am 6ft 10s 7s 7
mph
1018.8mb 58f 59f
10:50am 6ft 9s 7s 7 9 mph 1018.4mb 58f 59f
9:50am 6ft 8s 7s 4 7 mph 1018mb 58f 58f
8:50am 6ft 10s 7s 9 11 mph 1017.4mb 58f 58f
7:50am 6ft 9s 7s 9 11 mph 1017mb 58f 58f
6:50am 5ft 8s 6s 13 16 mph 1015.8mb 58f 58f
5:50am 6ft 8s 6s 13 18 mph 1014.3mb 59f 58f
4:50am 6ft 8s 6s 16 18 mph 1013mb 59f 59f
3:50am 6.5ft 8s 6s 13 16 mph 1012.2mb 59f 60f
2:50am 6.5ft 8s 6s 13 16 mph 1011.5mb 59f 60f
1:50am 6ft 8s 6s 20 25 mph 1010.7mb 59f 59f
12:50am 6ft 7s 5s 18 22 mph 1010mb 59f 61f
Sat 07/04 11:50pm 6ft 8s 6s 18 20 mph 1009.2mb 59f 61f
10:50pm 5ft 8s 5s 20 22 mph 1008.5mb 59f 61f
9:50pm 5ft 9s 5s 20 25 mph 1008.8mb 59f 62f
8:50pm 4.5ft 8s 6s 16 18 mph 1009.1mb 59f 62f
7:50pm 5ft 8s 6s 16 18 mph 1009.6mb 59f 62f
6:50pm 5ft 9s 6s 16 20 mph 1010.7mb 59f 62f
5:50pm 5ft 9s 7s 16 18 mph 1011.5mb 59f 63f
4:50pm 5ft 10s 8s 16 22 mph 1012.5mb 59f 64f
3:50pm 5ft 9s 8s 9 13 mph 1014mb 59f 62f
2:50pm 4.5ft 8s 7s 11 13 mph 1014.6mb 60f 61f
1:50pm 4.5ft 8s 7s 11 13 mph 1015mb 60f 60f
12:50pm 4.5ft 8s 7s 11 13 mph 1015.6mb 60f 59f
11:50am 5ft 8s 7s 9 11 mph 1016mb 60f 59f
10:50am 4.5ft 8s 7s 9 11 mph 1016.3mb 59f 58f
9:50am 5ft 9s 7s 7 9 mph 1016.7mb 58f 57f
8:50am 6ft 9s 7s 7
mph
1017mb 58f 56f
7:50am 7ft 9s 8s 4 7 mph 1016.9mb 58f 55f
6:50am 8ft 9s 8s 7
mph
1016.8mb 59f 55f
5:50am 6.5ft 9s 8s 7
mph
1016.8mb 59f 55f
4:50am 7.5ft 10s 8s 4 7 mph 1017mb 59f 54f
3:50am 7.5ft 9s 9s 4 7 mph 1017mb 58f 54f
2:50am 7ft 10s 9s 2 4 mph 1016.7mb 58f 55f
1:50am 7ft 9s 8s 2 4 mph 1016.8mb 58f 55f
12:50am 5.5ft 10s 8s  -  2 mph 1016.8mb 59f 56f
Fri 07/03 11:50pm 5.5ft 9s 8s 7 9 mph 1016.5mb 60f 56f
10:50pm 5.5ft 9s 8s 4 7 mph 1016.7mb 60f 57f
9:50pm 5.5ft 9s 7s 4 7 mph 1016.6mb 60f 57f
8:50pm 7ft 10s 8s 9 11 mph 1015.9mb 59f 57f
7:50pm 7ft 9s 8s 7 9 mph 1015.4mb 60f 57f
6:50pm 6.5ft 9s 8s 7 9 mph 1015mb 60f 58f
5:50pm 7ft 9s 8s 7 9 mph 1014.1mb 60f 60f
4:50pm 8.5ft 8s 8s 11 13 mph 1013.8mb 61f 60f
3:50pm 7.5ft 9s 8s 13 16 mph 1013.5mb 60f 60f
2:50pm 7ft 10s 8s 7 11 mph 1013.4mb 59f 61f
1:50pm 7.5ft 10s 8s 7 9 mph 1013.3mb 58f 60f
12:50pm 7ft 10s 8s 4 7 mph 1012.5mb 58f 59f
11:50am 6ft 10s 7s 9 11 mph 1011.9mb 58f 59f